Hampton, SC

6:16 AM EDT on March 31, 2015 (GMT -0400)
Joe Miley Road | | Change Station
CLOSE
Current Station
Personal Weather Station
Location: Brunson, SC
Elevation: 130 ft
Nearby Weather Stations

Elev 130 ft 32.94 °N, 81.13 °W | Updated 6 minutes ago

Fog
Fog
38.8 °F
Feels Like 39 °F
N
0.0
Wind Variable Wind from West

Today
High -- | Low -- °F
--% Chance of Precip.
Yesterday
High -- | Low -- °F
Precip. -- in
7:13 AM 7:43 PM
Waxing Gibbous, 86% visible
Pressure 30.07 in
Visibility 0.5 miles
Clouds
Windchill 39 °F
Dew Point 37 °F
Humidity 94%
Rainfall 0.00 in
Snow Depth Not available.
UV Not available.
Pollen 11.80 out of 12
Air Quality Not available.
Flu Activity Not available.
METAR KRBW 310955Z AUTO 00000KT 1/2SM FG VV005 08/08 A3007 RMK AO2

More Conditions Fewer Conditions

Pressure 30.07 in
Visibility 0.5 miles
Clouds
Windchill 39 °F
Dew Point 37 °F
Humidity 94%
Rainfall 0.00 in
Snow Depth Not available.
UV Not available.
Pollen 11.80 out of 12
Air Quality Not available.
Flu Activity Not available.
METAR KRBW 310955Z AUTO 00000KT 1/2SM FG VV005 08/08 A3007 RMK AO2

More Conditions Fewer Conditions

10-Day Weather Forecast

Almanac

Astronomy

Mar. 31, 2015 Rise Set
Actual Time
Civil Twilight
Nautical Twilight
Astronomical Twilight
Moon
Length of Visible Light
Length of Day
Tomorrow will be .
, % of the Moon is Illuminated

Today's Extremes

State Highs State Lows

Community

WunderPhotos

Upload Photos

1,809,733 photos uploaded!

WunderBlogs® & News

Nearby

Air Quality

  Air Quality AQ Index Pollutant
Not available.

Snow Depth

Station Depth Elevation

Earthquake Activity

City Distance Mag. Time & Date
Minimum magnitude displayed is 2.5.

Coastal Water Temperatures

Place Temperature

Stations

Nearby Weather Stations

Station Location Temp. Windchill Dew Point Humidity Wind Precip. Elev Updated Type